sensor_id;sensor_type;location;lat;lon;timestamp;pressure;altitude;pressure_sealevel;temperature;humidity
29121;BME280;16191;49.548;8.658;2023-02-04T00:02:05;101703.41;;;8.04;100.00
29121;BME280;16191;49.548;8.658;2023-02-04T00:04:32;101706.88;;;8.01;100.00
29121;BME280;16191;49.548;8.658;2023-02-04T00:06:58;101713.81;;;8.02;100.00
29121;BME280;16191;49.548;8.658;2023-02-04T00:09:25;101713.03;;;7.94;100.00
29121;BME280;16191;49.548;8.658;2023-02-04T00:11:51;101712.13;;;7.98;100.00
29121;BME280;16191;49.548;8.658;2023-02-04T00:14:18;101715.59;;;7.99;100.00
29121;BME280;16191;49.548;8.658;2023-02-04T00:16:45;101714.72;;;8.00;100.00
29121;BME280;16191;49.548;8.658;2023-02-04T00:19:11;101719.91;;;8.00;100.00
29121;BME280;16191;49.548;8.658;2023-02-04T00:21:38;101718.22;;;7.96;100.00
29121;BME280;16191;49.548;8.658;2023-02-04T00:24:05;101724.25;;;7.99;100.00
29121;BME280;16191;49.548;8.658;2023-02-04T00:26:31;101723.41;;;7.94;100.00
29121;BME280;16191;49.548;8.658;2023-02-04T00:28:58;101719.91;;;8.00;100.00
29121;BME280;16191;49.548;8.658;2023-02-04T00:31:24;101727.72;;;7.97;100.00
29121;BME280;16191;49.548;8.658;2023-02-04T00:33:51;101732.94;;;7.95;100.00
29121;BME280;16191;49.548;8.658;2023-02-04T00:36:18;101732.06;;;7.95;100.00
29121;BME280;16191;49.548;8.658;2023-02-04T00:38:45;101723.44;;;7.89;100.00
29121;BME280;16191;49.548;8.658;2023-02-04T00:41:12;101736.44;;;7.89;100.00
29121;BME280;16191;49.548;8.658;2023-02-04T00:43:39;101741.66;;;7.86;100.00
29121;BME280;16191;49.548;8.658;2023-02-04T00:46:05;101736.44;;;7.85;100.00
29121;BME280;16191;49.548;8.658;2023-02-04T00:48:33;101733.84;;;7.85;100.00
29121;BME280;16191;49.548;8.658;2023-02-04T00:51:01;101730.38;;;7.87;100.00
29121;BME280;16191;49.548;8.658;2023-02-04T00:53:28;101729.50;;;7.88;100.00
29121;BME280;16191;49.548;8.658;2023-02-04T00:55:56;101733.84;;;7.86;100.00
29121;BME280;16191;49.548;8.658;2023-02-04T00:58:22;101731.25;;;7.88;100.00
29121;BME280;16191;49.548;8.658;2023-02-04T01:00:49;101728.66;;;7.85;100.00
29121;BME280;16191;49.548;8.658;2023-02-04T01:03:16;101742.50;;;7.85;100.00
29121;BME280;16191;49.548;8.658;2023-02-04T01:05:43;101736.44;;;7.86;100.00
29121;BME280;16191;49.548;8.658;2023-02-04T01:08:10;101739.91;;;7.88;100.00
29121;BME280;16191;49.548;8.658;2023-02-04T01:10:36;101750.31;;;7.82;100.00
29121;BME280;16191;49.548;8.658;2023-02-04T01:13:03;101756.41;;;7.80;100.00
29121;BME280;16191;49.548;8.658;2023-02-04T01:15:33;101761.59;;;7.83;100.00
29121;BME280;16191;49.548;8.658;2023-02-04T01:18:00;101759.91;;;7.79;100.00
29121;BME280;16191;49.548;8.658;2023-02-04T01:20:27;101757.31;;;7.77;100.00
29121;BME280;16191;49.548;8.658;2023-02-04T01:22:54;101761.63;;;7.78;100.00
29121;BME280;16191;49.548;8.658;2023-02-04T01:25:21;101764.25;;;7.77;100.00
29121;BME280;16191;49.548;8.658;2023-02-04T01:27:48;101764.25;;;7.74;100.00
29121;BME280;16191;49.548;8.658;2023-02-04T01:30:14;101774.63;;;7.77;100.00
29121;BME280;16191;49.548;8.658;2023-02-04T01:32:41;101766.84;;;7.78;100.00
29121;BME280;16191;49.548;8.658;2023-02-04T01:35:08;101765.97;;;7.76;100.00
29121;BME280;16191;49.548;8.658;2023-02-04T01:37:35;101766.84;;;7.71;100.00
29121;BME280;16191;49.548;8.658;2023-02-04T01:40:02;101779.84;;;7.74;100.00
29121;BME280;16191;49.548;8.658;2023-02-04T01:42:29;101776.38;;;7.70;100.00
29121;BME280;16191;49.548;8.658;2023-02-04T01:44:55;101788.53;;;7.67;100.00
29121;BME280;16191;49.548;8.658;2023-02-04T01:47:43;101782.44;;;7.69;100.00
29121;BME280;16191;49.548;8.658;2023-02-04T01:50:31;101785.06;;;7.65;100.00
29121;BME280;16191;49.548;8.658;2023-02-04T01:53:23;101781.59;;;7.63;100.00
29121;BME280;16191;49.548;8.658;2023-02-04T01:56:21;101785.06;;;7.65;100.00
29121;BME280;16191;49.548;8.658;2023-02-04T01:59:12;101788.53;;;7.62;100.00
29121;BME280;16191;49.548;8.658;2023-02-04T02:01:59;101792.88;;;7.58;100.00
29121;BME280;16191;49.548;8.658;2023-02-04T02:04:30;101798.06;;;7.60;100.00
29121;BME280;16191;49.548;8.658;2023-02-04T02:07:02;101796.38;;;7.54;100.00
29121;BME280;16191;49.548;8.658;2023-02-04T02:09:30;101790.31;;;7.54;100.00
29121;BME280;16191;49.548;8.658;2023-02-04T02:12:00;101789.44;;;7.55;100.00
29121;BME280;16191;49.548;8.658;2023-02-04T02:14:27;101794.66;;;7.55;100.00
29121;BME280;16191;49.548;8.658;2023-02-04T02:16:53;101784.25;;;7.56;100.00
29121;BME280;16191;49.548;8.658;2023-02-04T02:19:31;101779.06;;;7.49;100.00
29121;BME280;16191;49.548;8.658;2023-02-04T02:24:40;101783.38;;;7.54;100.00
29121;BME280;16191;49.548;8.658;2023-02-04T02:27:09;101783.41;;;7.44;100.00
29121;BME280;16191;49.548;8.658;2023-02-04T02:29:39;101786.00;;;7.44;100.00
29121;BME280;16191;49.548;8.658;2023-02-04T02:32:07;101790.34;;;7.42;100.00
29121;BME280;16191;49.548;8.658;2023-02-04T02:34:34;101796.41;;;7.41;100.00
29121;BME280;16191;49.548;8.658;2023-02-04T02:37:02;101794.66;;;7.43;100.00
29121;BME280;16191;49.548;8.658;2023-02-04T02:39:29;101805.06;;;7.43;100.00
29121;BME280;16191;49.548;8.658;2023-02-04T02:41:58;101802.47;;;7.37;100.00
29121;BME280;16191;49.548;8.658;2023-02-04T02:44:26;101805.06;;;7.41;100.00
29121;BME280;16191;49.548;8.658;2023-02-04T02:46:53;101805.06;;;7.40;100.00
29121;BME280;16191;49.548;8.658;2023-02-04T02:49:22;101799.00;;;7.41;100.00
29121;BME280;16191;49.548;8.658;2023-02-04T02:51:49;101809.38;;;7.38;100.00
29121;BME280;16191;49.548;8.658;2023-02-04T02:54:25;101807.66;;;7.40;100.00
29121;BME280;16191;49.548;8.658;2023-02-04T02:56:56;101809.41;;;7.36;100.00
29121;BME280;16191;49.548;8.658;2023-02-04T02:59:24;101814.59;;;7.36;100.00
29121;BME280;16191;49.548;8.658;2023-02-04T03:01:59;101822.38;;;7.38;100.00
29121;BME280;16191;49.548;8.658;2023-02-04T03:04:32;101819.81;;;7.32;100.00
29121;BME280;16191;49.548;8.658;2023-02-04T03:07:01;101811.16;;;7.31;100.00
29121;BME280;16191;49.548;8.658;2023-02-04T03:09:28;101821.56;;;7.34;100.00
29121;BME280;16191;49.548;8.658;2023-02-04T03:11:55;101812.91;;;7.32;100.00
29121;BME280;16191;49.548;8.658;2023-02-04T03:14:22;101823.28;;;7.35;100.00
29121;BME280;16191;49.548;8.658;2023-02-04T03:16:52;101829.34;;;7.28;100.00
29121;BME280;16191;49.548;8.658;2023-02-04T03:19:21;101823.28;;;7.20;100.00
29121;BME280;16191;49.548;8.658;2023-02-04T03:21:49;101830.22;;;7.24;100.00
29121;BME280;16191;49.548;8.658;2023-02-04T03:24:16;101825.03;;;7.21;100.00
29121;BME280;16191;49.548;8.658;2023-02-04T03:26:43;101836.28;;;7.26;100.00
29121;BME280;16191;49.548;8.658;2023-02-04T03:29:10;101840.59;;;7.24;100.00
29121;BME280;16191;49.548;8.658;2023-02-04T03:31:37;101836.28;;;7.23;100.00
29121;BME280;16191;49.548;8.658;2023-02-04T03:34:04;101847.53;;;7.23;100.00
29121;BME280;16191;49.548;8.658;2023-02-04T03:36:31;101839.72;;;7.20;100.00
29121;BME280;16191;49.548;8.658;2023-02-04T03:38:58;101840.59;;;7.19;100.00
29121;BME280;16191;49.548;8.658;2023-02-04T03:41:26;101840.59;;;7.15;100.00
29121;BME280;16191;49.548;8.658;2023-02-04T03:43:53;101847.53;;;7.19;100.00
29121;BME280;16191;49.548;8.658;2023-02-04T03:46:19;101853.59;;;7.10;100.00
29121;BME280;16191;49.548;8.658;2023-02-04T03:48:49;101861.41;;;7.10;100.00
29121;BME280;16191;49.548;8.658;2023-02-04T03:51:15;101868.31;;;7.11;100.00
29121;BME280;16191;49.548;8.658;2023-02-04T03:53:42;101889.09;;;7.11;100.00
29121;BME280;16191;49.548;8.658;2023-02-04T03:56:09;101896.88;;;7.08;100.00
29121;BME280;16191;49.548;8.658;2023-02-04T03:58:35;101899.47;;;7.05;100.00
29121;BME280;16191;49.548;8.658;2023-02-04T04:01:02;101899.47;;;7.08;100.00
29121;BME280;16191;49.548;8.658;2023-02-04T04:03:29;101890.81;;;7.06;100.00
29121;BME280;16191;49.548;8.658;2023-02-04T04:05:55;101887.34;;;7.04;100.00
29121;BME280;16191;49.548;8.658;2023-02-04T04:08:22;101889.06;;;6.98;100.00
29121;BME280;16191;49.548;8.658;2023-02-04T04:10:49;101882.16;;;6.98;100.00
29121;BME280;16191;49.548;8.658;2023-02-04T04:13:17;101887.34;;;7.00;100.00
29121;BME280;16191;49.548;8.658;2023-02-04T04:15:43;101890.78;;;6.97;100.00
29121;BME280;16191;49.548;8.658;2023-02-04T04:18:10;101893.41;;;6.90;100.00
29121;BME280;16191;49.548;8.658;2023-02-04T04:20:37;101902.06;;;6.92;100.00
29121;BME280;16191;49.548;8.658;2023-02-04T04:23:03;101910.69;;;6.87;100.00
29121;BME280;16191;49.548;8.658;2023-02-04T04:25:30;101910.69;;;6.83;100.00
29121;BME280;16191;49.548;8.658;2023-02-04T04:27:57;101911.56;;;6.90;100.00
29121;BME280;16191;49.548;8.658;2023-02-04T04:30:24;101908.97;;;6.86;100.00
29121;BME280;16191;49.548;8.658;2023-02-04T04:32:50;101909.81;;;6.81;100.00
29121;BME280;16191;49.548;8.658;2023-02-04T04:35:17;101919.34;;;6.82;100.00
29121;BME280;16191;49.548;8.658;2023-02-04T04:37:44;101915.88;;;6.84;100.00
29121;BME280;16191;49.548;8.658;2023-02-04T04:40:11;101925.41;;;6.82;100.00
29121;BME280;16191;49.548;8.658;2023-02-04T04:42:38;101923.66;;;6.84;100.00
29121;BME280;16191;49.548;8.658;2023-02-04T04:45:10;101924.53;;;6.83;100.00
29121;BME280;16191;49.548;8.658;2023-02-04T04:47:37;101934.03;;;6.78;100.00
29121;BME280;16191;49.548;8.658;2023-02-04T04:50:04;101936.66;;;6.86;100.00
29121;BME280;16191;49.548;8.658;2023-02-04T04:52:31;101952.19;;;6.80;100.00
29121;BME280;16191;49.548;8.658;2023-02-04T04:54:58;101937.47;;;6.76;100.00
29121;BME280;16191;49.548;8.658;2023-02-04T04:57:24;101929.69;;;6.74;100.00
29121;BME280;16191;49.548;8.658;2023-02-04T04:59:51;101927.13;;;6.70;100.00
29121;BME280;16191;49.548;8.658;2023-02-04T05:02:18;101930.56;;;6.69;100.00
29121;BME280;16191;49.548;8.658;2023-02-04T05:04:45;101916.75;;;6.68;100.00
29121;BME280;16191;49.548;8.658;2023-02-04T05:07:12;101918.47;;;6.69;100.00
29121;BME280;16191;49.548;8.658;2023-02-04T05:09:39;101922.78;;;6.69;100.00
29121;BME280;16191;49.548;8.658;2023-02-04T05:12:06;101918.47;;;6.65;100.00
29121;BME280;16191;49.548;8.658;2023-02-04T05:14:32;101925.38;;;6.69;100.00
29121;BME280;16191;49.548;8.658;2023-02-04T05:16:59;101919.34;;;6.68;100.00
29121;BME280;16191;49.548;8.658;2023-02-04T05:19:25;101927.09;;;6.65;100.00
29121;BME280;16191;49.548;8.658;2023-02-04T05:21:52;101921.91;;;6.62;100.00
29121;BME280;16191;49.548;8.658;2023-02-04T05:24:19;101924.50;;;6.64;100.00
29121;BME280;16191;49.548;8.658;2023-02-04T05:26:46;101928.81;;;6.63;100.00
29121;BME280;16191;49.548;8.658;2023-02-04T05:29:12;101931.41;;;6.62;100.00
29121;BME280;16191;49.548;8.658;2023-02-04T05:31:39;101933.13;;;6.58;100.00
29121;BME280;16191;49.548;8.658;2023-02-04T05:34:06;101935.72;;;6.58;100.00
29121;BME280;16191;49.548;8.658;2023-02-04T05:36:32;101940.91;;;6.58;100.00
29121;BME280;16191;49.548;8.658;2023-02-04T05:38:59;101940.06;;;6.61;100.00
29121;BME280;16191;49.548;8.658;2023-02-04T05:41:26;101946.06;;;6.52;100.00
29121;BME280;16191;49.548;8.658;2023-02-04T05:43:53;101954.72;;;6.51;100.00
29121;BME280;16191;49.548;8.658;2023-02-04T05:46:19;101958.16;;;6.50;100.00
29121;BME280;16191;49.548;8.658;2023-02-04T05:48:46;101962.50;;;6.43;100.00
29121;BME280;16191;49.548;8.658;2023-02-04T05:51:13;101967.69;;;6.51;100.00
29121;BME280;16191;49.548;8.658;2023-02-04T05:53:40;101966.81;;;6.46;100.00
29121;BME280;16191;49.548;8.658;2023-02-04T05:56:07;101963.31;;;6.38;100.00
29121;BME280;16191;49.548;8.658;2023-02-04T05:58:35;101962.44;;;6.36;100.00
29121;BME280;16191;49.548;8.658;2023-02-04T06:01:05;101968.50;;;6.36;100.00
29121;BME280;16191;49.548;8.658;2023-02-04T06:03:32;101963.34;;;6.44;100.00
29121;BME280;16191;49.548;8.658;2023-02-04T06:05:59;101971.13;;;6.42;100.00
29121;BME280;16191;49.548;8.658;2023-02-04T06:08:25;101970.28;;;6.46;100.00
29121;BME280;16191;49.548;8.658;2023-02-04T06:10:52;101978.03;;;6.42;100.00
29121;BME280;16191;49.548;8.658;2023-02-04T06:13:19;101979.78;;;6.47;100.00
29121;BME280;16191;49.548;8.658;2023-02-04T06:15:45;101978.91;;;6.42;100.00
29121;BME280;16191;49.548;8.658;2023-02-04T06:18:12;101990.97;;;6.36;100.00
29121;BME280;16191;49.548;8.658;2023-02-04T06:20:39;101990.16;;;6.43;100.00
29121;BME280;16191;49.548;8.658;2023-02-04T06:23:06;101999.63;;;6.36;100.00
29121;BME280;16191;49.548;8.658;2023-02-04T06:25:32;101992.69;;;6.35;100.00
29121;BME280;16191;49.548;8.658;2023-02-04T06:27:59;102000.47;;;6.35;100.00
29121;BME280;16191;49.548;8.658;2023-02-04T06:30:26;102004.78;;;6.35;100.00
29121;BME280;16191;49.548;8.658;2023-02-04T06:32:53;102011.66;;;6.22;100.00
29121;BME280;16191;49.548;8.658;2023-02-04T06:35:20;102014.25;;;6.30;100.00
29121;BME280;16191;49.548;8.658;2023-02-04T06:37:46;102015.09;;;6.19;100.00
29121;BME280;16191;49.548;8.658;2023-02-04T06:40:14;102016.84;;;6.24;100.00
29121;BME280;16191;49.548;8.658;2023-02-04T06:42:41;102016.81;;;6.21;100.00
29121;BME280;16191;49.548;8.658;2023-02-04T06:45:07;102019.41;;;6.21;100.00
29121;BME280;16191;49.548;8.658;2023-02-04T06:47:34;102028.88;;;6.14;100.00
29121;BME280;16191;49.548;8.658;2023-02-04T06:50:01;102033.19;;;6.13;100.00
29121;BME280;16191;49.548;8.658;2023-02-04T06:52:28;102032.28;;;6.04;100.00
29121;BME280;16191;49.548;8.658;2023-02-04T06:54:54;102039.19;;;6.06;100.00
29121;BME280;16191;49.548;8.658;2023-02-04T06:57:21;102037.47;;;6.07;100.00
29121;BME280;16191;49.548;8.658;2023-02-04T06:59:48;102038.31;;;6.03;100.00
29121;BME280;16191;49.548;8.658;2023-02-04T07:02:17;102041.78;;;6.08;100.00
29121;BME280;16191;49.548;8.658;2023-02-04T07:04:44;102050.44;;;6.10;100.00
29121;BME280;16191;49.548;8.658;2023-02-04T07:07:13;102047.84;;;6.08;100.00
29121;BME280;16191;49.548;8.658;2023-02-04T07:09:39;102045.25;;;6.08;100.00
29121;BME280;16191;49.548;8.658;2023-02-04T07:12:06;102055.63;;;6.04;100.00
29121;BME280;16191;49.548;8.658;2023-02-04T07:14:33;102057.31;;;6.02;100.00
29121;BME280;16191;49.548;8.658;2023-02-04T07:17:00;102053.00;;;6.02;100.00
29121;BME280;16191;49.548;8.658;2023-02-04T07:19:26;102056.44;;;6.00;100.00
29121;BME280;16191;49.548;8.658;2023-02-04T07:21:53;102063.31;;;5.95;100.00
29121;BME280;16191;49.548;8.658;2023-02-04T07:24:22;102067.63;;;5.96;100.00
29121;BME280;16191;49.548;8.658;2023-02-04T07:26:49;102080.47;;;5.86;100.00
29121;BME280;16191;49.548;8.658;2023-02-04T07:29:16;102085.66;;;5.86;100.00
29121;BME280;16191;49.548;8.658;2023-02-04T07:31:52;102089.25;;;5.99;100.00
29121;BME280;16191;49.548;8.658;2023-02-04T07:34:18;102094.44;;;5.99;100.00
29121;BME280;16191;49.548;8.658;2023-02-04T07:36:45;102097.91;;;6.01;100.00
29121;BME280;16191;49.548;8.658;2023-02-04T07:39:12;102101.41;;;6.05;100.00
29121;BME280;16191;49.548;8.658;2023-02-04T07:41:39;102097.06;;;6.07;100.00
29121;BME280;16191;49.548;8.658;2023-02-04T07:44:06;102101.44;;;6.12;100.00
29121;BME280;16191;49.548;8.658;2023-02-04T07:46:32;102110.06;;;6.10;100.00
29121;BME280;16191;49.548;8.658;2023-02-04T07:48:59;102113.50;;;6.07;100.00
29121;BME280;16191;49.548;8.658;2023-02-04T07:51:26;102128.16;;;6.07;100.00
29121;BME280;16191;49.548;8.658;2023-02-04T07:53:55;102129.91;;;6.09;100.00
29121;BME280;16191;49.548;8.658;2023-02-04T07:56:22;102129.94;;;6.11;100.00
29121;BME280;16191;49.548;8.658;2023-02-04T07:58:49;102129.09;;;6.13;100.00
29121;BME280;16191;49.548;8.658;2023-02-04T08:01:15;102132.56;;;6.15;100.00
29121;BME280;16191;49.548;8.658;2023-02-04T08:03:42;102139.47;;;6.13;100.00
29121;BME280;16191;49.548;8.658;2023-02-04T08:06:10;102128.28;;;6.19;100.00
29121;BME280;16191;49.548;8.658;2023-02-04T08:08:36;102144.72;;;6.21;100.00
29121;BME280;16191;49.548;8.658;2023-02-04T08:11:03;102143.03;;;6.25;100.00
29121;BME280;16191;49.548;8.658;2023-02-04T08:13:29;102136.97;;;6.30;100.00
29121;BME280;16191;49.548;8.658;2023-02-04T08:15:56;102137.03;;;6.36;100.00
29121;BME280;16191;49.548;8.658;2023-02-04T08:18:23;102150.00;;;6.36;100.00
29121;BME280;16191;49.548;8.658;2023-02-04T08:20:50;102150.91;;;6.41;100.00
29121;BME280;16191;49.548;8.658;2023-02-04T08:23:17;102150.03;;;6.42;100.00
29121;BME280;16191;49.548;8.658;2023-02-04T08:25:44;102144.91;;;6.47;100.00
29121;BME280;16191;49.548;8.658;2023-02-04T08:28:11;102151.81;;;6.51;100.00
29121;BME280;16191;49.548;8.658;2023-02-04T08:30:37;102153.59;;;6.60;100.00
29121;BME280;16191;49.548;8.658;2023-02-04T08:33:04;102157.06;;;6.60;100.00
29121;BME280;16191;49.548;8.658;2023-02-04T08:35:31;102160.56;;;6.65;100.00
29121;BME280;16191;49.548;8.658;2023-02-04T08:37:58;102165.78;;;6.73;100.00
29121;BME280;16191;49.548;8.658;2023-02-04T08:40:24;102170.97;;;6.76;100.00
29121;BME280;16191;49.548;8.658;2023-02-04T08:42:51;102173.59;;;6.77;100.00
29121;BME280;16191;49.548;8.658;2023-02-04T08:45:18;102171.84;;;6.76;100.00
29121;BME280;16191;49.548;8.658;2023-02-04T08:47:44;102173.59;;;6.79;100.00
29121;BME280;16191;49.548;8.658;2023-02-04T08:50:11;102177.06;;;6.78;100.00
29121;BME280;16191;49.548;8.658;2023-02-04T08:52:38;102176.22;;;6.83;100.00
29121;BME280;16191;49.548;8.658;2023-02-04T08:55:05;102180.59;;;6.89;100.00
29121;BME280;16191;49.548;8.658;2023-02-04T08:57:32;102186.63;;;6.88;100.00
29121;BME280;16191;49.548;8.658;2023-02-04T09:00:00;102201.22;;;6.72;100.00
29121;BME280;16191;49.548;8.658;2023-02-04T09:02:27;102197.88;;;6.88;100.00
29121;BME280;16191;49.548;8.658;2023-02-04T09:04:54;102200.50;;;6.98;100.00
29121;BME280;16191;49.548;8.658;2023-02-04T09:07:21;102201.41;;;7.04;100.00
29121;BME280;16191;49.548;8.658;2023-02-04T09:09:48;102196.28;;;7.21;100.00
29121;BME280;16191;49.548;8.658;2023-02-04T09:12:14;102201.56;;;7.35;100.00
29121;BME280;16191;49.548;8.658;2023-02-04T09:14:41;102197.22;;;7.37;100.00
29121;BME280;16191;49.548;8.658;2023-02-04T09:17:08;102199.03;;;7.64;100.00
29121;BME280;16191;49.548;8.658;2023-02-04T09:19:35;102201.66;;;7.85;100.00
29121;BME280;16191;49.548;8.658;2023-02-04T09:22:01;102211.22;;;7.97;100.00
29121;BME280;16191;49.548;8.658;2023-02-04T09:24:28;102211.19;;;7.69;100.00
29121;BME280;16191;49.548;8.658;2023-02-04T09:26:55;102210.38;;;8.16;100.00
29121;BME280;16191;49.548;8.658;2023-02-04T09:29:22;102207.75;;;8.28;100.00
29121;BME280;16191;49.548;8.658;2023-02-04T09:31:49;102214.75;;;8.40;100.00
29121;BME280;16191;49.548;8.658;2023-02-04T09:34:16;102209.53;;;8.40;100.00
29121;BME280;16191;49.548;8.658;2023-02-04T09:36:42;102203.44;;;8.53;100.00
29121;BME280;16191;49.548;8.658;2023-02-04T09:39:09;102195.63;;;8.29;100.00
29121;BME280;16191;49.548;8.658;2023-02-04T09:41:40;102206.03;;;8.16;100.00
29121;BME280;16191;49.548;8.658;2023-02-04T09:44:13;102202.56;;;8.14;100.00
29121;BME280;16191;49.548;8.658;2023-02-04T09:46:47;102203.44;;;8.09;100.00
29121;BME280;16191;49.548;8.658;2023-02-04T09:49:15;102212.09;;;7.97;100.00
29121;BME280;16191;49.548;8.658;2023-02-04T09:51:43;102222.50;;;7.99;100.00
29121;BME280;16191;49.548;8.658;2023-02-04T09:54:14;102228.53;;;7.90;100.00
29121;BME280;16191;49.548;8.658;2023-02-04T09:56:41;102226.81;;;7.92;100.00
29121;BME280;16191;49.548;8.658;2023-02-04T09:59:14;102231.16;;;7.95;100.00
29121;BME280;16191;49.548;8.658;2023-02-04T10:01:41;102231.16;;;8.25;100.00
29121;BME280;16191;49.548;8.658;2023-02-04T10:04:13;102237.28;;;8.36;100.00
29121;BME280;16191;49.548;8.658;2023-02-04T10:06:41;102240.75;;;8.55;100.00
29121;BME280;16191;49.548;8.658;2023-02-04T10:09:10;102238.97;;;8.75;100.00
29121;BME280;16191;49.548;8.658;2023-02-04T10:11:39;102234.53;;;9.14;100.00
29121;BME280;16191;49.548;8.658;2023-02-04T10:14:11;102235.31;;;9.43;97.39
29121;BME280;16191;49.548;8.658;2023-02-04T10:16:40;102230.88;;;9.56;94.88
29121;BME280;16191;49.548;8.658;2023-02-04T10:19:14;102237.13;;;9.23;95.53
29121;BME280;16191;49.548;8.658;2023-02-04T10:21:43;102247.56;;;9.12;97.86
29121;BME280;16191;49.548;8.658;2023-02-04T10:24:19;102245.00;;;9.06;95.26
29121;BME280;16191;49.548;8.658;2023-02-04T10:26:46;102241.59;;;8.71;96.38
29121;BME280;16191;49.548;8.658;2023-02-04T10:29:19;102253.72;;;8.75;96.90
29121;BME280;16191;49.548;8.658;2023-02-04T10:31:48;102248.56;;;8.63;98.63
29121;BME280;16191;49.548;8.658;2023-02-04T10:34:31;102259.84;;;8.63;98.08
29121;BME280;16191;49.548;8.658;2023-02-04T10:36:58;102259.81;;;8.45;98.24
29121;BME280;16191;49.548;8.658;2023-02-04T10:39:28;102266.78;;;8.38;98.55
29121;BME280;16191;49.548;8.658;2023-02-04T10:41:58;102262.44;;;8.34;100.00
29121;BME280;16191;49.548;8.658;2023-02-04T10:49:25;102267.63;;;8.48;100.00
29121;BME280;16191;49.548;8.658;2023-02-04T10:51:52;102264.16;;;8.63;99.31
29121;BME280;16191;49.548;8.658;2023-02-04T10:54:21;102263.31;;;8.61;98.80
29121;BME280;16191;49.548;8.658;2023-02-04T10:57:12;102266.75;;;8.67;100.00
29121;BME280;16191;49.548;8.658;2023-02-04T10:59:42;102265.00;;;8.68;98.05
29121;BME280;16191;49.548;8.658;2023-02-04T11:05:19;102252.78;;;9.15;94.69
29121;BME280;16191;49.548;8.658;2023-02-04T11:07:48;102259.72;;;9.18;88.88
29121;BME280;16191;49.548;8.658;2023-02-04T11:10:21;102250.06;;;9.43;86.11
29121;BME280;16191;49.548;8.658;2023-02-04T11:15:44;102249.69;;;10.13;77.37
29121;BME280;16191;49.548;8.658;2023-02-04T11:20:46;102254.22;;;9.77;76.33
29121;BME280;16191;49.548;8.658;2023-02-04T11:23:15;102244.59;;;9.91;77.67
29121;BME280;16191;49.548;8.658;2023-02-04T11:25:42;102245.63;;;9.61;78.87
29121;BME280;16191;49.548;8.658;2023-02-04T11:28:23;102248.97;;;9.91;76.22
29121;BME280;16191;49.548;8.658;2023-02-04T11:31:01;102250.56;;;10.13;74.10
29121;BME280;16191;49.548;8.658;2023-02-04T11:33:40;102253.06;;;10.32;73.04
29121;BME280;16191;49.548;8.658;2023-02-04T11:36:09;102248.69;;;10.34;71.32
29121;BME280;16191;49.548;8.658;2023-02-04T11:38:38;102262.72;;;10.11;70.65
29121;BME280;16191;49.548;8.658;2023-02-04T11:41:05;102272.16;;;10.37;68.75
29121;BME280;16191;49.548;8.658;2023-02-04T11:43:33;102261.34;;;10.79;67.84
29121;BME280;16191;49.548;8.658;2023-02-04T11:46:13;102258.75;;;10.78;65.99
29121;BME280;16191;49.548;8.658;2023-02-04T11:48:42;102255.34;;;10.67;64.08
29121;BME280;16191;49.548;8.658;2023-02-04T11:51:16;102252.09;;;11.26;62.16
29121;BME280;16191;49.548;8.658;2023-02-04T11:53:50;102246.69;;;11.44;59.69
29121;BME280;16191;49.548;8.658;2023-02-04T11:56:21;102246.47;;;11.58;60.26
29121;BME280;16191;49.548;8.658;2023-02-04T11:58:49;102250.63;;;11.73;59.61
29121;BME280;16191;49.548;8.658;2023-02-04T12:03:49;102247.28;;;11.64;58.43
29121;BME280;16191;49.548;8.658;2023-02-04T12:06:24;102250.78;;;11.62;58.00
29121;BME280;16191;49.548;8.658;2023-02-04T12:08:51;102240.66;;;11.38;59.10
29121;BME280;16191;49.548;8.658;2023-02-04T12:11:28;102240.94;;;11.84;58.24
29121;BME280;16191;49.548;8.658;2023-02-04T12:14:06;102245.56;;;12.23;57.05
29121;BME280;16191;49.548;8.658;2023-02-04T12:16:40;102240.63;;;12.04;56.70
29121;BME280;16191;49.548;8.658;2023-02-04T12:19:10;102241.44;;;12.09;55.48
29121;BME280;16191;49.548;8.658;2023-02-04T12:21:38;102247.97;;;11.80;55.19
29121;BME280;16191;49.548;8.658;2023-02-04T12:24:05;102243.84;;;11.59;55.63
29121;BME280;16191;49.548;8.658;2023-02-04T12:26:32;102254.81;;;11.20;55.09
29121;BME280;16191;49.548;8.658;2023-02-04T12:28:58;102255.94;;;10.96;56.93
29121;BME280;16191;49.548;8.658;2023-02-04T12:31:28;102262.09;;;10.87;57.28
29121;BME280;16191;49.548;8.658;2023-02-04T12:33:56;102259.50;;;10.87;56.44
29121;BME280;16191;49.548;8.658;2023-02-04T12:36:23;102261.31;;;10.82;57.40
29121;BME280;16191;49.548;8.658;2023-02-04T12:38:53;102269.41;;;10.50;58.01
29121;BME280;16191;49.548;8.658;2023-02-04T12:41:19;102265.75;;;10.71;58.34
29121;BME280;16191;49.548;8.658;2023-02-04T12:43:46;102264.88;;;10.72;58.84
29121;BME280;16191;49.548;8.658;2023-02-04T12:46:16;102268.28;;;10.82;58.83
29121;BME280;16191;49.548;8.658;2023-02-04T12:48:43;102266.56;;;10.79;60.05
29121;BME280;16191;49.548;8.658;2023-02-04T12:51:10;102264.81;;;10.78;59.37
29121;BME280;16191;49.548;8.658;2023-02-04T12:53:36;102258.91;;;11.41;59.04
29121;BME280;16191;49.548;8.658;2023-02-04T12:56:03;102261.72;;;11.91;57.09
29121;BME280;16191;49.548;8.658;2023-02-04T12:58:30;102270.31;;;11.35;57.30
29121;BME280;16191;49.548;8.658;2023-02-04T13:00:56;102263.47;;;11.25;55.90
29121;BME280;16191;49.548;8.658;2023-02-04T13:03:23;102267.75;;;11.27;56.43
29121;BME280;16191;49.548;8.658;2023-02-04T13:05:50;102279.03;;;11.34;56.44
29121;BME280;16191;49.548;8.658;2023-02-04T13:08:17;102266.28;;;11.79;56.18
29121;BME280;16191;49.548;8.658;2023-02-04T13:10:43;102273.94;;;11.91;55.04
29121;BME280;16191;49.548;8.658;2023-02-04T13:13:10;102267.94;;;11.86;54.92
29121;BME280;16191;49.548;8.658;2023-02-04T13:15:37;102263.88;;;11.60;54.37